Date,TemperatureHighF,TemperatureAvgF,TemperatureLowF,DewpointHighF,DewpointAvgF,DewpointLowF,HumidityHigh,HumidityAvg,HumidityLow,PressureMaxIn,PressureMinIn,WindSpeedMaxMPH,WindSpeedAvgMPH,GustSpeedMaxMPH,PrecipitationSumIn
2013-1-1,48.7,45.9,42.1,48.2,41.0,30.0,98,84,53,30.13,29.93,10,1,11,0.34
2013-1-2,48.1,44.9,40.4,47.5,40.4,33.9,99,85,68,30.17,29.90,7,0,7,0.07
2013-1-3,43.5,38.1,27.2,36.1,32.9,26.2,97,82,72,30.30,30.13,5,0,5,0.00
2013-1-4,49.6,34.7,22.5,28.4,22.7,16.6,97,66,30,30.37,30.25,10,1,11,0.00
2013-1-5,48.9,35.8,23.0,32.5,24.5,20.1,89,66,38,30.43,30.24,7,1,8,0.00
2013-1-6,53.3,43.0,34.3,39.2,35.5,29.3,91,75,57,30.26,30.06,9,1,14,0.02
2013-1-7,48.3,35.1,26.3,31.4,27.9,24.6,95,77,48,30.45,30.21,7,0,7,0.00
2013-1-9,61.9,50.7,35.4,53.6,46.5,34.4,97,86,69,30.47,30.37,6,0,6,0.00
2013-1-10,64.7,52.6,44.7,51.0,44.0,35.4,99,76,37,30.52,30.38,6,0,6,0.00
2013-1-11,51.0,45.0,43.3,45.7,44.1,39.5,99,97,65,30.38,30.18,5,0,5,0.11
2013-1-12,65.9,55.1,45.4,62.6,54.2,45.1,100,97,89,30.18,30.08,6,0,6,0.01
2013-1-13,70.2,60.9,53.5,63.2,58.7,53.1,100,93,75,30.12,30.02,12,1,13,0.00
2013-1-14,64.2,62.0,59.7,63.4,61.1,58.6,99,97,91,30.11,30.04,7,0,7,0.39
2013-1-15,61.3,44.9,40.2,61.0,44.5,40.0,100,99,96,30.19,30.08,9,2,9,0.34
2013-1-16,48.9,44.5,39.8,48.5,44.4,39.8,100,100,99,30.09,29.97,5,0,5,0.33
2013-1-17,48.9,42.9,32.0,48.9,42.6,31.8,100,99,97,30.20,29.86,18,2,21,2.62
2013-1-18,44.7,34.1,26.9,34.9,28.4,23.6,100,82,44,30.54,30.19,7,0,9,0.02
2013-1-19,53.1,35.8,22.0,32.1,27.4,21.3,99,75,37,30.52,30.18,8,1,8,0.01
2013-1-20,62.0,44.8,30.8,36.9,30.4,26.9,87,59,33,30.18,30.02,11,2,11,0.00
2013-1-21,58.5,42.1,26.3,36.0,26.4,14.0,96,59,33,30.10,29.91,12,2,13,0.00
2013-1-22,40.2,32.7,27.5,15.0,2.7,-5.8,46,29,15,30.28,30.01,18,2,18,0.00
2013-1-23,44.2,31.5,19.0,22.2,15.2,-0.1,80,53,30,30.39,30.07,14,1,14,0.00
2013-1-24,40.4,32.0,22.1,28.4,16.0,4.5,88,54,31,30.54,30.00,15,2,15,0.00
2013-1-25,25.9,22.8,17.3,24.7,16.7,6.4,95,78,53,30.55,30.16,6,1,6,0.01
2013-1-26,37.5,29.6,25.8,35.1,28.6,24.6,98,96,87,30.41,30.14,4,0,5,0.04
2013-1-27,41.2,31.9,21.5,31.0,26.9,20.5,98,83,60,30.62,30.41,5,0,5,0.02
2013-1-28,49.1,41.0,33.9,43.9,37.0,30.2,95,86,73,30.51,30.26,10,1,10,0.03
2013-1-29,71.4,55.4,38.9,58.9,50.7,38.4,99,85,62,30.26,30.02,12,1,13,0.00
2013-1-30,71.5,64.6,52.5,62.7,60.4,49.8,97,87,69,30.02,29.40,19,3,20,0.99
2013-1-31,52.4,41.3,33.7,49.7,26.5,19.1,92,57,38,30.02,29.45,19,4,19,0.00
2013-2-1,40.3,33.2,23.1,28.6,13.7,2.5,64,46,25,30.40,29.90,17,4,19,0.00
2013-2-2,43.0,31.3,18.0,35.2,17.7,10.9,88,60,32,30.43,30.06,15,2,16,0.00
2013-2-3,49.1,38.8,28.4,34.9,28.0,21.3,97,68,41,30.06,29.88,19,2,19,0.00
2013-2-4,48.9,37.5,24.8,27.8,24.9,20.3,89,62,40,30.17,30.01,8,1,8,0.00
2013-2-5,60.4,46.4,35.6,37.1,32.5,27.3,85,60,40,30.01,29.90,11,1,12,0.00
2013-2-6,60.8,43.9,29.8,34.0,26.7,19.0,95,58,21,30.26,29.99,9,1,10,0.00
2013-2-7,41.8,37.9,36.1,37.5,33.0,24.9,97,83,57,30.32,30.05,8,1,10,0.72
2013-2-8,57.3,45.2,36.4,46.9,36.7,27.6,97,74,43,30.11,29.88,13,2,13,0.02
2013-2-9,54.7,40.3,27.9,27.6,22.9,16.3,85,54,23,30.35,30.10,8,1,8,0.00
2013-2-10,54.4,40.7,27.5,40.5,27.3,20.3,96,64,29,30.48,30.19,7,0,7,0.13
2013-2-11,57.0,48.9,41.4,55.5,48.0,40.3,99,97,94,30.19,29.96,14,2,14,0.09
2013-2-12,58.0,49.2,37.3,49.9,35.9,24.8,99,64,29,30.11,29.91,5,0,6,0.00
2013-2-13,46.6,43.1,35.8,44.9,41.8,34.5,98,95,71,29.94,29.65,7,0,7,0.22
2013-2-14,51.0,38.3,27.5,36.9,32.0,27.0,99,81,50,30.08,29.87,10,1,11,0.01
2013-2-15,60.0,45.4,27.6,40.7,32.7,26.6,98,67,33,30.12,29.93,12,1,13,0.00
2013-2-16,44.2,34.5,26.9,36.0,28.2,17.1,96,78,61,30.01,29.84,10,1,10,0.00
2013-2-17,39.1,30.6,22.6,18.6,11.8,8.2,75,47,28,30.29,30.01,13,2,17,0.02
2013-2-18,51.6,35.3,18.1,27.6,21.6,12.8,89,61,32,30.42,30.22,11,1,13,0.00
2013-2-19,47.7,41.0,35.0,43.3,34.1,18.6,96,78,44,30.24,29.88,11,2,12,0.17
2013-2-20,53.7,40.9,27.1,19.5,12.9,5.8,68,35,15,30.15,30.02,11,1,11,0.00
2013-2-21,55.1,38.9,22.0,32.6,19.3,11.8,85,50,21,30.31,30.11,7,0,7,0.01
2013-2-22,40.2,35.9,34.7,35.9,34.8,31.8,98,96,72,30.33,30.14,4,0,5,0.45
2013-2-23,43.4,38.8,34.3,42.5,38.0,33.8,98,97,92,30.17,29.85,5,0,6,0.17
2013-2-24,61.6,48.8,37.1,43.0,34.6,22.9,99,65,27,30.04,29.85,13,2,13,0.00
2013-2-25,41.9,38.1,35.2,28.5,26.4,24.5,72,63,56,30.21,30.03,6,1,6,0.00
2013-2-26,38.7,35.6,31.5,38.2,34.0,26.4,99,94,69,30.12,29.61,10,2,11,1.37
2013-2-27,56.0,45.5,37.5,41.2,38.3,35.3,99,78,51,29.82,29.67,14,2,14,0.01
2013-2-28,47.8,40.5,31.9,35.5,28.4,25.1,86,63,44,29.91,29.72,12,2,14,0.00
2013-3-1,44.7,39.0,30.0,31.2,28.8,26.1,87,67,53,29.95,29.88,8,1,9,0.00
2013-3-2,44.4,37.7,32.7,33.5,28.5,21.4,88,70,48,29.97,29.84,10,1,17,0.00
2013-3-3,43.9,33.4,25.7,22.1,18.3,15.7,69,55,37,30.04,29.91,12,2,13,0.00
2013-3-4,53.1,36.1,19.3,26.6,17.6,11.7,86,52,19,30.17,30.02,10,1,10,0.00
2013-3-5,46.7,41.5,35.5,43.1,35.4,22.9,97,80,47,30.09,29.62,8,1,9,0.42
2013-3-6,47.6,38.3,30.6,40.4,27.2,22.2,98,65,45,30.14,29.62,19,3,20,0.01
2013-3-7,52.4,38.4,29.4,31.8,26.9,23.5,83,65,40,30.30,30.14,11,1,13,0.00
2013-3-8,55.1,40.7,26.3,28.2,24.6,21.7,83,56,29,30.36,30.23,11,1,12,0.00
2013-3-9,60.3,44.9,26.3,35.3,29.5,23.0,89,58,32,30.38,30.25,8,1,8,0.00
2013-3-10,65.8,49.5,33.8,40.6,35.2,31.2,92,62,33,30.32,30.18,11,1,11,0.00
2013-3-11,67.7,54.2,40.1,54.3,42.8,28.1,94,66,52,30.21,29.85,11,1,12,0.06
2013-3-12,65.6,56.7,42.5,56.5,47.3,26.6,98,75,31,29.98,29.73,11,1,11,0.37
2013-3-13,53.2,42.9,32.7,33.3,25.8,17.5,90,54,30,30.18,29.97,19,3,19,0.00
2013-3-14,52.1,38.9,26.4,21.9,17.4,14.0,69,44,22,30.31,30.17,11,2,11,0.00
2013-3-15,64.2,47.1,28.0,39.0,28.8,18.1,80,51,36,30.22,29.90,14,2,15,0.00
2013-3-16,77.3,64.0,44.0,49.1,45.2,37.4,79,52,35,29.90,29.67,18,4,22,0.00
2013-3-17,63.1,53.1,40.8,53.5,45.5,38.2,91,76,60,30.13,29.83,12,2,12,0.00
2013-3-18,40.7,38.5,37.1,39.2,37.6,36.5,98,97,91,30.16,29.87,6,1,9,0.20
2013-3-19,63.2,49.0,34.5,44.5,28.8,11.7,99,56,19,30.07,29.86,16,2,16,0.00
2013-3-20,56.2,48.0,39.4,27.6,15.5,9.5,54,28,18,30.13,29.79,14,2,14,0.00
2013-3-21,43.4,36.0,27.7,27.3,14.2,8.8,57,41,26,30.02,29.80,13,2,15,0.00
2013-3-22,50.8,36.2,20.5,23.5,17.0,12.1,80,48,27,30.12,30.00,12,1,12,0.00
2013-3-23,56.4,44.6,34.9,38.2,31.2,23.3,84,61,41,30.08,29.91,6,0,7,0.00
2013-3-24,43.8,39.3,35.8,40.8,37.6,35.0,97,94,82,29.94,29.56,12,1,12,0.99
2013-3-25,45.2,37.3,34.9,35.7,32.5,21.3,98,86,44,29.70,29.57,19,2,21,0.03
2013-3-26,46.0,39.3,30.2,28.1,25.3,23.7,77,58,44,30.20,29.88,5,2,6,0.00
2013-3-27,49.4,39.3,29.2,28.5,23.9,20.8,81,56,35,30.28,30.19,12,1,13,0.00
2013-3-28,54.4,40.6,26.2,26.9,22.3,19.8,81,51,26,30.33,30.22,14,1,15,0.00
2013-3-29,61.0,44.5,25.7,36.0,27.3,21.9,88,56,25,30.37,30.19,12,1,12,0.00
2013-3-30,64.5,52.3,38.3,42.6,37.1,29.8,89,59,35,30.24,30.05,9,1,10,0.00
2013-3-31,68.2,55.2,48.5,57.4,51.4,42.3,98,88,63,30.05,29.78,13,2,16,1.05
2013-4-1,69.7,58.4,47.5,53.5,44.3,35.3,99,65,33,29.95,29.82,14,2,17,0.01
2013-4-2,52.2,44.2,34.9,36.1,32.8,22.8,91,66,33,30.16,29.95,6,0,6,0.00
2013-4-3,58.3,48.5,35.1,30.7,22.8,17.4,55,37,23,30.30,30.14,8,1,9,0.00
2013-4-4,47.8,39.3,34.5,36.5,29.7,17.3,97,72,34,30.32,30.00,11,2,16,0.85
2013-4-5,65.2,49.9,35.3,46.9,39.2,29.4,98,72,28,30.06,29.93,11,1,11,0.01
2013-4-6,68.1,52.6,34.4,40.3,36.0,32.6,96,57,29,30.25,30.06,8,1,8,0.00
2013-4-7,70.7,56.8,40.8,50.7,43.1,33.9,78,62,39,30.25,30.08,13,1,13,0.00
2013-4-8,77.5,64.6,49.8,59.2,52.8,45.8,96,68,44,30.15,30.02,14,2,15,0.00
2013-4-9,83.3,69.6,52.6,61.8,55.4,50.1,96,64,40,30.17,30.04,14,2,14,0.00
2013-4-10,85.6,70.2,58.3,63.6,57.9,54.8,90,67,41,30.07,29.91,7,2,7,0.00
2013-4-11,80.5,70.2,60.6,66.3,61.3,56.8,96,75,50,29.95,29.70,15,2,16,0.14
2013-4-12,80.9,69.7,59.3,66.3,56.8,39.2,99,68,34,29.79,29.58,22,3,22,1.35
2013-4-13,74.9,62.3,41.7,45.8,39.0,32.6,94,46,22,30.01,29.79,11,1,12,0.00
2013-4-14,78.4,61.7,42.3,54.8,43.7,34.4,89,56,27,30.08,29.97,7,0,8,0.00
2013-4-15,63.3,58.1,54.5,60.2,56.4,49.3,98,94,65,30.20,29.98,5,0,5,0.21
2013-4-16,79.0,65.5,53.9,64.7,58.3,53.3,99,80,48,30.30,30.16,7,0,7,0.00
2013-4-17,80.1,68.5,56.2,63.8,59.4,55.1,98,75,47,30.22,30.08,8,1,8,0.00
2013-4-18,79.6,69.2,61.6,65.4,61.2,58.4,94,77,51,30.14,29.96,8,1,8,0.00
2013-4-19,76.5,66.6,54.4,67.1,62.3,44.6,95,86,69,29.96,29.69,20,2,31,0.40
2013-4-20,63.9,52.2,40.5,43.9,35.0,28.4,85,55,29,30.27,29.87,11,1,13,0.00
2013-4-21,61.8,49.5,35.8,42.9,38.2,32.7,92,67,46,30.48,30.27,11,1,15,0.00
2013-4-22,63.6,50.1,38.7,41.4,35.0,28.2,89,60,28,30.46,30.24,12,1,13,0.00
2013-4-23,69.9,56.5,45.0,53.8,47.0,35.4,92,71,51,30.28,30.10,6,1,7,0.00
2013-4-24,72.8,61.3,48.6,58.8,54.4,47.5,98,80,57,30.13,29.97,15,2,15,0.00
2013-4-25,70.0,58.6,47.2,57.8,40.5,30.9,88,54,26,30.28,30.02,11,1,11,0.00
2013-4-26,71.5,55.7,38.8,47.5,38.1,33.1,89,56,26,30.44,30.28,6,0,7,0.00
2013-4-27,64.0,56.8,52.7,56.5,51.5,45.3,97,83,68,30.36,30.25,4,0,5,0.02
2013-4-28,55.0,54.2,53.4,54.7,53.7,52.8,99,98,97,30.25,30.03,5,0,5,2.20
2013-4-29,72.2,59.9,54.1,62.6,57.3,53.8,99,92,66,30.06,29.94,6,0,6,0.15
2013-4-30,70.9,60.6,54.4,62.7,58.1,53.8,99,92,71,30.17,29.98,6,0,6,0.14
2013-5-1,56.5,54.4,52.6,55.6,53.8,52.2,99,98,96,30.24,30.16,6,0,8,0.00
2013-5-2,61.6,58.3,53.2,57.2,55.4,52.4,98,90,84,30.32,30.24,2,0,0,0.12
2013-5-3,65.7,59.3,51.3,55.7,52.3,44.8,97,78,62,30.24,30.13,9,1,10,0.00
2013-5-4,63.3,54.3,48.6,51.8,47.6,43.6,90,78,60,30.15,30.02,11,2,12,0.00
2013-5-5,55.8,52.0,48.7,55.5,49.5,45.6,99,91,83,30.07,29.90,10,2,11,0.42
2013-5-6,73.0,60.5,50.1,63.0,56.0,47.9,99,87,52,29.90,29.80,8,1,9,0.95
2013-5-7,73.8,56.5,47.4,58.4,50.8,46.2,98,84,40,29.95,29.84,14,0,14,0.02
2013-5-8,71.5,60.2,49.1,60.4,55.3,48.6,99,85,61,30.00,29.91,6,0,6,0.00
2013-5-9,80.6,65.8,48.7,61.5,55.8,48.3,100,74,44,30.08,29.99,8,1,9,0.00
2013-5-10,81.8,68.5,53.1,67.4,59.7,52.5,99,76,49,30.05,29.92,11,1,12,0.00
2013-5-11,78.9,69.7,60.8,68.6,61.7,59.1,98,77,56,29.93,29.76,12,2,15,0.19
2013-5-12,70.6,61.1,48.0,60.7,47.8,34.9,98,66,32,30.03,29.81,13,1,13,0.02
2013-5-13,67.1,54.3,38.9,42.5,35.6,27.0,95,55,24,30.18,30.03,9,1,13,0.00
2013-5-14,71.6,56.0,37.2,48.4,41.4,35.9,96,63,34,30.26,30.05,10,1,12,0.00
2013-5-15,88.0,70.2,52.0,65.3,57.5,47.7,94,67,42,30.06,29.89,10,1,10,0.00
2013-5-16,83.5,71.5,58.8,63.7,60.1,55.6,94,70,40,29.99,29.90,7,1,9,0.00
2013-5-17,86.8,71.6,57.4,67.0,62.4,56.6,98,76,43,30.06,29.97,5,0,7,0.00
2013-5-18,72.7,66.3,60.1,66.9,63.8,59.5,99,92,78,30.13,30.04,4,0,5,0.02
2013-5-19,78.6,68.5,63.5,70.8,66.0,62.1,98,92,70,30.10,30.01,6,0,7,0.06
2013-5-20,80.7,71.1,65.6,71.5,68.1,65.0,99,91,68,30.09,29.99,6,0,7,0.67
2013-5-21,87.6,73.9,64.0,75.0,68.0,63.5,99,83,57,30.03,29.90,9,0,10,0.00
2013-5-22,84.7,72.5,63.9,72.1,66.2,61.2,99,82,56,29.99,29.85,13,1,13,0.00
2013-5-23,80.8,68.5,61.0,70.3,64.9,60.1,98,89,67,29.96,29.79,14,0,17,0.17
2013-5-24,70.3,62.6,53.1,60.9,49.3,35.4,98,67,32,30.19,29.84,13,1,13,0.01
2013-5-25,75.9,60.6,43.3,50.0,42.5,36.0,90,55,29,30.31,30.14,10,1,11,0.00
2013-5-26,74.6,62.0,53.3,57.0,49.5,41.6,90,65,39,30.28,30.15,8,0,9,0.00
2013-5-27,81.0,66.4,50.4,61.4,55.9,49.6,99,73,45,30.27,30.12,10,1,10,0.00
2013-5-28,83.9,72.9,61.5,67.0,62.9,57.6,95,73,50,30.20,30.11,11,1,12,0.00
2013-5-29,84.7,73.7,61.3,69.4,63.2,59.2,94,72,44,30.21,30.12,11,1,11,0.00
2013-5-30,85.7,70.9,58.5,69.8,62.8,57.8,99,78,48,30.25,30.14,6,0,6,0.00
2013-5-31,85.1,73.8,63.6,70.0,65.2,60.8,99,77,51,30.20,30.07,9,1,10,0.00
2013-6-1,84.0,76.0,67.1,69.2,66.5,63.7,91,74,53,30.09,29.98,10,1,11,0.00
2013-6-2,81.9,73.5,66.5,71.4,67.8,65.2,98,83,67,30.01,29.87,11,1,11,0.40
2013-6-3,84.0,71.6,64.7,72.6,67.9,63.8,99,89,64,29.94,29.80,6,0,7,0.14
2013-6-4,78.8,70.1,64.1,70.3,66.2,63.5,99,88,68,30.06,29.93,7,0,7,0.04
2013-6-5,74.5,68.4,64.6,69.8,66.1,63.3,98,93,81,30.09,29.97,6,0,6,0.62
2013-6-6,76.4,70.3,65.5,73.6,69.3,64.9,100,97,87,29.98,29.77,5,0,6,0.41
2013-6-7,79.9,70.1,66.5,74.8,68.4,66.0,100,95,76,29.82,29.62,10,0,12,0.69
2013-6-8,83.6,72.4,62.6,72.0,67.3,62.2,100,85,58,30.06,29.80,7,0,7,0.07
2013-6-9,88.1,73.5,64.8,74.9,69.3,64.5,100,88,55,30.12,30.01,5,0,6,0.23
2013-6-10,80.5,71.9,67.8,73.6,69.5,66.3,100,92,76,30.06,29.85,12,2,15,1.35
2013-6-11,84.2,75.1,67.2,70.7,66.5,63.7,99,77,52,29.96,29.88,11,1,11,0.03
2013-6-12,91.2,77.7,62.4,77.6,70.3,61.5,98,80,57,29.98,29.84,10,1,10,0.00
2013-6-13,91.2,80.7,70.8,74.1,71.9,67.0,99,77,50,29.84,29.60,15,2,25,0.00
2013-6-14,81.1,72.7,59.0,65.7,58.5,54.6,98,63,42,30.01,29.75,11,1,13,0.00
2013-6-15,83.1,69.7,55.7,66.9,61.0,55.1,98,76,49,30.12,30.01,7,0,8,0.00
2013-6-16,84.9,75.3,66.4,71.7,66.5,62.3,88,75,57,30.10,29.98,7,1,11,0.00
2013-6-17,85.2,74.3,69.9,74.7,70.0,66.8,98,87,65,30.00,29.90,6,1,7,0.21
2013-6-18,80.3,72.7,69.2,73.5,70.4,68.3,98,93,78,29.93,29.76,10,1,12,1.64
2013-6-19,82.0,72.5,63.1,71.0,67.4,62.8,100,85,60,30.09,29.88,2,0,2,0.01
2013-6-20,80.9,71.3,63.3,70.7,66.6,62.8,99,86,62,30.21,30.09,7,0,7,0.00
2013-6-21,83.6,70.6,60.8,69.9,64.0,60.5,99,82,56,30.25,30.15,6,0,8,0.00
2013-6-22,84.5,71.4,59.4,71.4,65.4,58.8,99,83,55,30.22,30.09,6,0,8,0.00
2013-6-23,88.3,75.2,65.3,74.4,69.5,64.8,99,84,49,30.19,30.08,4,0,5,0.00
2013-6-24,88.5,74.6,67.3,75.7,70.6,66.4,98,89,59,30.18,30.06,8,1,8,0.15
2013-6-25,87.8,76.5,68.6,76.9,71.6,68.3,100,86,59,30.11,29.96,7,1,7,0.00
2013-6-26,89.4,74.0,67.5,77.1,69.9,66.7,99,88,61,30.01,29.86,9,1,13,0.28
2013-6-27,86.4,75.9,67.6,76.6,72.0,67.3,100,88,67,29.91,29.69,9,1,9,0.32
2013-6-28,90.4,77.4,68.3,77.7,71.2,67.7,99,83,52,29.74,29.56,9,1,10,0.25
2013-6-29,86.3,76.0,68.1,74.9,70.2,67.4,99,84,57,29.68,29.58,10,0,10,0.01
2013-6-30,85.7,74.3,67.6,75.8,70.6,67.0,98,89,64,29.82,29.66,6,0,8,1.00
2013-7-1,82.2,73.3,66.2,74.3,69.8,65.7,100,90,71,29.94,29.80,5,0,6,0.06
2013-7-2,79.8,72.3,70.0,73.8,70.7,69.2,99,95,79,30.12,29.94,7,0,7,0.60
2013-7-3,79.2,73.9,70.3,75.1,72.5,70.0,100,95,85,30.19,30.10,4,0,6,0.11
2013-7-4,87.1,74.8,68.3,78.3,72.0,67.4,100,92,62,30.23,30.11,10,0,13,1.99
2013-7-5,85.2,74.8,68.7,77.7,72.3,68.1,100,92,72,30.22,30.15,8,0,8,0.01
2013-7-6,84.0,74.9,69.3,77.2,72.1,69.0,100,92,69,30.22,30.07,5,0,6,0.26
2013-7-7,83.6,75.8,70.4,78.0,73.2,70.1,99,92,77,30.15,30.03,7,0,7,0.12
2013-7-8,88.3,76.4,70.9,76.1,72.3,70.1,99,88,58,30.16,30.06,4,0,4,0.03
2013-7-9,89.7,78.8,70.4,77.6,73.0,69.1,99,84,60,30.13,30.01,11,0,12,0.48
2013-7-10,85.4,75.9,68.8,77.4,72.0,68.5,100,88,66,30.08,29.90,10,1,10,0.93
2013-7-11,79.7,72.8,67.0,75.8,71.4,66.2,100,96,85,29.94,29.84,8,0,8,0.78
2013-7-12,80.8,71.5,66.8,74.0,69.3,65.9,100,93,75,30.00,29.85,8,0,8,0.09
2013-7-13,78.4,71.5,66.7,73.1,69.4,65.8,99,93,82,30.11,30.00,6,0,7,0.30
2013-7-14,85.8,75.5,70.1,76.7,72.5,69.5,100,91,69,30.26,30.08,10,0,10,0.13
2013-7-15,88.1,75.5,67.8,75.9,71.1,67.5,100,88,57,30.31,30.22,4,0,5,0.00
2013-7-16,93.7,78.8,66.7,77.4,71.9,66.4,100,82,48,30.28,30.17,5,0,5,0.00
2013-7-17,92.5,76.3,69.0,80.7,72.5,66.8,99,90,56,30.21,30.11,13,0,13,0.37
2013-7-18,93.9,78.4,68.4,80.3,73.8,68.4,100,87,60,30.14,30.02,7,0,8,0.01
2013-7-19,89.9,79.0,70.8,78.3,74.1,70.2,99,86,62,30.08,29.95,11,1,11,0.00
2013-7-20,86.9,76.2,70.8,78.1,73.3,69.0,99,91,68,30.00,29.89,7,1,9,0.18
2013-7-21,88.2,74.9,68.4,78.4,72.2,68.1,100,92,66,29.99,29.89,8,0,10,0.00
2013-7-22,86.9,77.8,70.6,77.5,72.9,70.3,99,86,68,29.96,29.80,9,1,9,0.00
2013-7-23,87.4,77.1,68.6,74.7,70.4,67.4,99,82,55,29.82,29.72,11,1,11,0.00
2013-7-24,91.3,76.8,65.1,78.4,71.2,63.6,99,85,55,29.84,29.71,14,0,15,0.71
2013-7-25,82.5,72.4,64.4,73.0,68.7,64.4,100,89,66,30.01,29.81,4,0,6,0.01
2013-7-26,85.4,74.1,66.0,73.1,69.2,65.7,100,86,60,30.10,29.98,6,0,6,0.00
2013-7-27,74.7,69.3,66.2,71.8,68.5,65.3,99,97,87,30.01,29.91,9,0,10,2.02
2013-7-28,85.2,74.5,68.4,74.3,70.4,67.9,99,88,64,29.98,29.89,7,1,13,0.43
2013-7-29,85.9,72.7,63.7,72.4,67.3,63.4,100,85,53,30.14,29.97,4,0,6,0.01
2013-7-30,83.4,72.6,62.7,72.7,66.5,61.4,98,83,59,30.22,30.11,5,0,5,0.00
2013-7-31,80.0,71.7,68.8,73.9,70.1,68.3,99,95,76,30.14,29.96,10,0,10,1.60
2013-8-1,85.2,74.4,68.7,75.7,70.8,67.7,99,89,67,29.97,29.84,8,0,9,0.22
2013-8-2,87.3,74.3,64.9,74.0,68.7,64.7,100,84,52,30.02,29.90,4,0,4,0.00
2013-8-3,86.8,76.7,67.8,77.2,71.3,67.2,99,85,55,30.00,29.90,9,1,11,0.00
2013-8-4,85.2,74.6,67.7,72.6,68.6,65.5,98,83,55,30.02,29.89,7,0,7,0.04
2013-8-5,82.5,71.9,64.0,73.0,67.3,62.2,97,86,67,30.06,29.95,4,0,5,0.00
2013-8-6,76.4,70.9,65.5,72.9,68.9,64.1,99,93,85,30.04,29.95,6,0,6,0.51
2013-8-7,82.4,73.8,69.3,75.3,71.1,68.1,99,92,73,30.07,29.99,6,0,6,0.11
2013-8-8,86.0,75.8,70.3,78.2,73.0,69.6,99,91,73,30.04,29.96,7,0,8,0.02
2013-8-9,88.3,76.0,71.0,80.2,73.3,70.0,99,92,68,30.03,29.95,16,1,19,1.00
2013-8-10,90.6,75.2,70.2,81.2,73.0,69.3,100,93,61,30.08,30.01,12,0,13,1.67
2013-8-11,89.9,77.7,68.0,79.7,73.6,68.0,100,88,62,30.10,30.00,6,0,7,0.00
2013-8-12,92.3,76.9,69.9,79.8,72.4,69.6,99,87,56,30.04,29.92,5,0,6,0.03
2013-8-13,85.6,73.9,67.9,77.6,71.5,67.6,100,93,69,29.93,29.78,10,0,12,0.12
2013-8-14,77.6,69.4,61.8,71.0,65.0,60.9,99,87,60,30.07,29.84,6,0,7,0.00
2013-8-15,73.3,64.3,56.4,63.4,59.7,55.6,98,86,63,30.16,30.06,6,0,8,0.00
2013-8-16,72.2,62.8,56.2,64.2,59.9,55.6,99,91,71,30.17,30.08,5,0,6,0.00
2013-8-17,65.0,62.0,58.0,63.7,61.1,57.4,99,97,91,30.20,30.13,0,0,0,0.66
2013-8-18,77.6,69.5,62.8,72.4,67.4,62.5,100,93,77,30.23,30.12,5,0,6,0.14
2013-8-19,76.4,69.2,65.9,71.6,67.9,65.6,99,96,81,30.17,30.07,2,0,3,0.45
2013-8-20,79.7,71.5,63.8,74.0,69.0,63.5,100,92,78,30.18,30.09,1,0,2,0.00
2013-8-21,83.0,73.3,67.8,76.9,71.4,67.5,100,94,73,30.21,30.08,4,0,5,0.34
2013-8-22,88.5,77.2,68.1,76.1,72.0,67.3,100,85,60,30.13,29.97,5,0,5,0.26
2013-8-23,87.1,72.8,65.5,75.4,69.6,65.2,100,90,59,30.07,29.94,5,0,8,0.28
2013-8-24,81.0,68.6,60.8,66.6,62.5,60.0,98,83,52,30.29,30.07,6,0,6,0.00
2013-8-25,80.2,66.7,56.7,67.8,61.6,56.4,100,86,53,30.39,30.27,4,0,6,0.00
2013-8-26,83.7,67.9,55.1,69.3,62.6,54.8,100,85,54,30.32,30.10,5,0,5,0.00
2013-8-27,88.5,74.9,63.4,76.4,69.1,62.5,99,84,60,30.12,29.96,5,0,5,0.00
2013-8-28,88.2,77.0,67.3,77.4,71.9,66.7,99,85,65,29.99,29.88,3,0,0,0.00
2013-8-29,90.3,78.0,70.2,77.5,73.0,68.9,97,85,62,29.97,29.85,2,0,1,0.00
2013-8-30,86.8,74.7,68.5,72.8,69.8,67.0,99,86,56,30.03,29.91,4,0,4,0.00
2013-8-31,87.8,74.4,66.6,77.5,71.0,65.9,99,90,65,29.94,29.83,3,0,0,0.03
2013-9-1,88.2,73.3,66.3,77.8,70.3,66.0,100,92,66,29.88,29.76,8,1,0,0.34
2013-9-2,87.0,74.6,65.6,76.6,71.0,65.6,100,90,63,29.89,29.78,2,0,0,0.18
2013-9-3,87.1,74.3,66.7,74.9,69.4,65.5,99,86,57,29.95,29.80,2,0,1,0.05
2013-9-4,83.8,71.7,60.4,70.3,64.8,59.8,99,81,54,30.08,29.95,6,0,7,0.00
2013-9-8,86.0,76.0,62.5,72.7,68.6,62.2,100,80,53,29.98,29.90,1,0,0,0.00
2013-9-9,86.8,73.4,63.4,73.4,68.4,63.1,100,86,55,30.12,29.98,1,0,0,0.00
2013-9-10,88.5,74.8,64.2,74.7,69.3,63.9,100,85,54,30.22,30.11,3,0,0,0.00
2013-9-11,87.1,75.3,66.5,75.2,70.4,65.9,99,86,59,30.18,30.05,3,0,0,0.00
2013-9-12,88.5,73.6,66.7,76.0,69.8,66.0,99,89,60,30.05,29.81,5,0,0,0.27
2013-9-13,83.1,70.9,60.6,69.6,62.3,54.2,100,77,45,29.91,29.77,6,0,10,0.01
2013-9-14,75.1,62.1,51.7,60.7,54.5,49.5,97,78,52,30.12,29.91,7,0,9,0.00
2013-9-15,76.8,63.5,51.5,67.3,59.5,51.2,99,88,66,30.23,30.11,4,0,4,0.00
2013-9-16,84.2,70.1,59.7,70.0,63.8,59.4,100,83,53,30.16,30.04,6,0,7,0.00
2013-9-17,74.7,65.0,57.4,61.9,58.5,55.7,95,80,57,30.30,30.16,7,0,7,0.00
2013-9-18,73.0,62.5,55.4,61.6,56.5,53.0,95,82,58,30.32,30.16,5,0,5,0.00
2013-9-19,75.0,64.9,57.3,66.3,61.1,56.5,98,88,64,30.19,30.07,5,0,5,0.00
2013-9-20,85.4,70.5,60.6,72.1,65.7,60.3,99,86,55,30.08,29.90,5,0,5,0.00
2013-9-21,72.6,68.3,62.5,70.0,67.2,61.9,98,97,89,29.92,29.69,5,0,6,0.23
2013-9-22,76.4,64.1,55.3,62.5,58.4,54.5,99,84,54,29.91,29.71,8,1,10,0.00
2013-9-23,72.0,60.7,52.5,61.6,55.8,51.5,98,85,58,30.07,29.91,7,0,7,0.01
2013-9-24,77.8,64.5,56.3,64.4,59.5,55.7,99,86,54,30.08,29.93,5,0,6,0.00
2013-9-25,70.5,61.6,56.2,65.1,59.7,55.6,99,94,74,29.94,29.86,2,0,2,0.03
2013-9-26,72.7,62.1,54.4,62.3,57.5,53.8,100,87,59,30.04,29.88,8,0,8,0.00
2013-9-27,74.3,60.6,51.3,61.1,55.6,51.0,100,85,57,30.19,30.04,8,0,8,0.01
2013-9-28,70.3,58.2,50.6,59.1,54.1,50.3,100,88,61,30.26,30.17,7,0,8,0.00
2013-9-29,71.2,59.4,50.4,60.3,55.5,49.9,99,88,61,30.19,30.03,7,0,7,0.00
2013-9-30,68.4,56.1,50.2,59.8,54.7,49.9,100,95,68,30.11,30.02,2,0,2,0.00
2013-10-1,81.6,64.6,52.5,65.7,59.1,52.2,99,85,50,30.13,30.02,7,0,7,0.00
2013-10-2,85.3,65.6,53.9,66.1,59.9,53.6,100,84,48,30.15,30.05,4,0,4,0.00
2013-10-3,84.1,67.8,57.8,68.5,61.5,57.1,100,83,49,30.13,30.04,7,0,9,0.00
2013-10-4,84.4,68.5,57.7,68.9,63.3,57.4,100,85,51,30.14,30.05,4,0,5,0.00
2013-10-5,86.1,69.7,58.3,69.9,64.2,58.0,100,85,52,30.13,30.01,4,0,5,0.00
2013-10-6,82.1,69.4,59.4,70.3,64.1,59.1,100,85,57,30.03,29.88,6,0,7,0.00
2013-10-7,72.0,66.7,58.1,70.4,64.5,52.6,99,93,76,30.01,29.78,11,0,14,1.35
2013-10-8,67.8,59.0,52.7,53.5,50.2,47.8,87,73,52,30.22,30.00,12,1,14,0.00
2013-10-9,70.1,57.6,47.6,54.5,49.7,45.4,92,76,53,30.24,30.13,8,1,8,0.00
2013-10-10,70.2,60.2,48.7,62.6,55.8,47.2,96,86,73,30.14,29.97,8,0,9,0.00
2013-10-11,74.3,63.5,57.9,63.4,59.3,55.7,94,87,58,29.99,29.92,5,0,7,0.00
2013-10-12,71.5,63.8,56.4,64.2,61.0,55.8,99,91,73,30.08,29.95,4,0,4,0.00
2013-10-13,69.5,64.4,60.0,63.7,61.4,59.1,98,90,79,30.22,30.08,8,0,9,0.00
2013-10-14,69.3,61.5,55.6,63.3,59.3,55.0,98,93,78,30.25,30.16,6,0,9,0.05
2013-10-15,72.5,61.5,55.1,58.7,56.1,54.0,98,84,54,30.21,30.05,5,0,7,0.00
2013-10-16,72.2,61.5,51.6,62.3,57.7,51.1,99,88,68,30.08,29.95,6,0,6,0.00
2013-10-17,69.7,63.4,58.0,64.6,61.8,57.4,99,95,80,29.97,29.83,7,0,7,0.07
2013-10-18,68.0,58.7,50.0,62.6,54.2,49.7,99,87,56,30.04,29.89,6,0,6,0.01
2013-10-19,62.8,56.5,51.0,60.8,55.6,50.5,99,97,90,29.97,29.83,4,0,4,0.02
2013-10-20,63.7,50.6,42.1,50.9,43.0,38.0,99,78,41,30.12,29.92,5,0,6,0.01
2013-10-21,66.2,51.1,37.1,54.7,46.7,36.8,100,87,59,30.18,30.01,7,0,9,0.00
2013-10-22,67.8,58.4,51.3,58.7,54.6,50.5,99,88,64,30.02,29.78,6,0,6,0.00
2013-10-23,63.4,53.7,41.5,56.4,43.6,32.3,99,72,37,30.04,29.72,15,2,18,0.00
2013-10-24,57.1,44.5,31.8,41.8,35.6,30.3,97,73,45,30.20,30.03,10,1,11,0.00
2013-10-25,50.0,41.1,31.9,39.5,32.8,28.5,97,74,47,30.41,30.20,10,1,13,0.00
2013-10-26,55.4,41.5,26.4,38.2,32.2,25.4,97,73,44,30.40,30.09,10,1,11,0.00
2013-10-27,66.5,51.4,37.5,49.5,43.5,36.4,98,77,49,30.14,30.05,10,0,11,0.00
2013-10-28,64.7,53.2,45.1,55.7,49.5,44.5,98,88,66,30.27,30.12,1,0,1,0.00
2013-10-29,72.0,57.9,48.7,58.0,53.0,48.2,99,85,57,30.34,30.24,5,0,5,0.00
2013-10-30,76.2,61.1,49.8,60.6,55.3,49.3,99,83,54,30.28,30.15,9,0,10,0.00
2013-10-31,68.2,61.3,53.5,64.2,57.4,52.6,98,88,75,30.17,29.87,10,0,10,0.00
2013-11-1,68.4,64.4,56.9,65.0,61.2,56.1,98,89,80,29.87,29.65,16,2,16,0.34
2013-11-2,66.8,56.0,45.7,57.2,46.3,37.1,99,73,39,29.99,29.70,12,1,14,0.00
2013-11-3,58.8,47.7,37.3,40.2,37.0,34.6,100,69,41,30.37,29.99,10,1,12,0.00
2013-11-4,56.1,44.1,33.8,36.4,33.4,30.0,94,69,40,30.56,30.37,7,0,7,0.00
2013-11-5,55.5,44.8,32.4,48.3,38.8,29.1,97,80,65,30.60,30.45,6,0,7,0.00
2013-11-6,67.5,54.9,47.0,55.1,50.2,46.2,98,85,61,30.45,30.13,4,0,4,0.00
2013-11-7,68.3,52.0,40.3,59.2,44.3,32.7,99,78,44,30.16,29.96,11,1,14,0.01
2013-11-8,56.2,43.0,31.7,33.5,27.9,19.7,92,60,25,30.34,30.16,9,1,12,0.00
2013-11-9,56.7,41.9,27.4,35.6,30.9,25.6,95,69,38,30.41,30.22,11,1,11,0.00
2013-11-10,69.6,52.4,35.0,40.5,34.5,27.8,93,56,27,30.26,30.11,17,1,17,0.00
2013-11-11,58.8,44.9,31.4,33.3,28.6,25.2,87,55,30,30.36,30.15,7,0,7,0.00
2013-11-12,62.3,41.5,28.5,40.9,31.0,16.7,90,69,38,30.49,30.07,14,2,16,0.02
2013-11-13,46.5,31.3,20.5,23.3,18.6,16.4,91,62,31,30.59,30.48,10,1,12,0.00
2013-11-14,56.1,37.2,21.0,27.2,22.7,19.0,94,61,26,30.51,30.35,9,1,11,0.00
2013-11-15,59.1,44.2,27.3,46.1,35.0,23.9,96,73,37,30.38,30.22,5,0,5,0.04
2013-11-16,59.8,53.2,47.2,55.3,51.3,46.1,98,93,84,30.29,30.21,2,0,3,0.02
2013-11-17,64.1,57.5,51.6,62.8,56.6,50.8,99,97,85,30.23,29.87,4,0,5,0.24
2013-11-18,71.1,61.7,49.2,65.0,48.9,31.5,100,67,33,30.01,29.81,9,1,13,0.03
2013-11-19,52.4,45.3,37.3,31.9,27.8,25.2,71,51,35,30.31,30.00,11,1,11,0.00
2013-11-20,50.2,41.3,32.2,33.7,30.5,26.8,83,66,50,30.49,30.29,9,1,11,0.00
2013-11-21,54.8,47.4,42.1,44.3,39.8,31.6,83,75,66,30.52,30.40,7,1,8,0.00
2013-11-22,63.6,55.9,48.5,58.1,52.1,43.4,95,87,80,30.42,30.10,10,1,12,0.00
2013-11-23,59.1,52.7,39.3,57.1,40.3,15.5,99,67,32,30.22,30.06,11,1,13,0.00
2013-11-24,38.6,30.4,24.8,22.0,7.6,0.9,56,39,21,30.56,30.23,8,1,8,0.00
2013-11-25,39.1,30.0,17.8,22.0,12.5,5.8,81,50,30,30.61,30.40,5,0,5,0.00
2013-11-26,42.9,35.4,31.0,42.6,33.4,20.5,99,93,55,30.40,29.64,8,0,9,2.73
2013-11-27,44.5,39.1,28.4,44.2,32.9,17.1,99,80,53,30.10,29.56,14,2,16,0.26
2013-11-28,41.8,29.2,18.1,22.9,18.8,15.2,93,67,42,30.51,30.23,2,0,0,0.00
2013-11-29,49.6,38.5,21.8,27.9,24.9,20.6,96,61,39,30.65,30.50,6,0,7,0.00
2013-11-30,44.7,32.5,26.0,26.7,23.8,21.5,88,72,45,30.68,30.41,8,1,8,0.00
2013-12-1,55.3,37.4,22.6,37.0,29.7,21.1,95,76,48,30.41,30.06,7,0,7,0.00
2013-12-2,56.2,41.0,26.8,41.1,34.2,26.1,98,79,51,30.06,29.84,3,0,4,0.00
2013-12-3,58.8,49.9,38.3,51.8,45.9,36.1,95,86,77,29.98,29.88,10,0,12,0.02
2013-12-4,56.7,53.1,49.3,56.4,52.6,48.8,99,98,96,30.08,29.96,2,0,2,0.07
2013-12-5,65.5,61.8,56.8,64.6,61.3,56.5,100,98,93,30.10,29.99,8,1,9,0.10
2013-12-6,74.4,68.7,64.7,65.7,63.9,62.5,99,85,68,30.02,29.92,15,3,19,0.05
2013-12-7,66.7,51.4,42.9,64.5,47.1,36.6,99,85,71,30.43,29.97,10,2,10,0.30
2013-12-8,43.1,35.4,32.4,38.6,32.9,30.1,98,91,79,30.46,30.30,6,1,9,0.16
2013-12-9,42.7,38.2,32.6,42.4,37.8,32.1,99,98,98,30.30,30.07,3,0,3,0.37
2013-12-10,51.0,41.9,28.4,46.8,36.0,21.8,99,82,47,30.34,29.92,10,1,14,0.28
2013-12-11,48.5,34.0,21.4,29.6,25.1,20.2,97,73,41,30.48,30.32,9,1,9,0.00
2013-12-12,45.3,33.5,25.7,26.5,19.0,9.4,92,59,24,30.46,30.32,8,1,9,0.00
2013-12-13,49.7,33.8,20.4,30.8,23.0,18.4,93,69,34,30.42,30.30,8,1,9,0.00
2013-12-14,39.1,36.7,35.2,36.3,34.1,29.5,98,91,78,30.31,29.82,7,1,7,0.68
2013-12-15,48.6,40.7,36.7,41.2,37.7,34.6,99,90,59,29.94,29.75,9,2,12,0.01
2013-12-16,56.4,41.5,28.7,36.4,31.6,25.7,91,70,41,30.20,30.10,5,1,4,0.00
2013-12-17,59.7,45.9,30.6,38.1,33.8,25.8,93,65,41,30.14,29.90,11,2,11,0.00
2013-12-18,49.9,38.5,28.2,25.9,19.9,10.9,83,50,21,30.30,30.07,13,1,13,0.00
2013-12-19,62.0,41.7,23.7,31.6,25.8,21.8,95,60,23,30.35,30.23,11,1,12,0.00
2013-12-20,60.7,50.0,36.3,50.9,41.6,30.2,88,73,56,30.25,30.14,12,2,15,0.00
2013-12-21,65.8,58.3,47.9,62.8,55.1,47.0,99,89,79,30.15,29.98,11,1,11,0.00
2013-12-22,71.4,65.2,60.7,67.1,63.5,59.5,99,94,81,30.05,29.95,12,2,15,1.31
2013-12-23,62.4,56.0,41.6,62.1,54.1,34.1,99,93,74,30.18,29.96,10,1,11,1.45
2013-12-24,43.4,36.0,27.0,34.6,25.8,16.4,89,67,39,30.50,30.17,12,1,12,0.00
2013-12-25,36.3,26.6,18.8,18.9,14.5,10.2,87,62,37,30.60,30.43,6,0,6,0.00
2013-12-26,50.8,32.9,20.5,28.0,22.7,17.4,92,69,38,30.44,30.30,7,1,7,0.00
2013-12-27,49.4,33.6,22.4,27.1,22.8,20.3,94,69,34,30.53,30.41,4,0,4,0.00
2013-12-28,53.1,37.7,22.0,39.7,28.8,20.5,95,74,36,30.45,30.16,5,0,6,0.04
2013-12-29,58.4,45.2,39.4,51.1,42.3,37.7,98,90,69,30.17,29.77,10,1,11,0.95
2013-12-30,51.2,42.1,31.9,42.2,37.5,31.0,98,84,66,30.15,29.95,5,0,5,0.00
2013-12-31,48.9,40.3,28.2,36.9,26.6,18.5,95,61,34,30.39,30.13,9,1,10,0.00
2014-1-1,50.0,36.4,26.1,31.6,27.2,21.8,92,71,41,30.43,30.17,9,0,9,0.00
2014-1-2,44.2,38.0,32.4,43.7,35.5,23.4,98,91,66,30.17,29.67,12,1,17,0.37